Flight Track Log - Related Links

Times and Time Zones

All times are in EDT time to prevent confusion due to time zone crossing. See the KAP5 flight status page for this flight to view local times or setup timezone preferences in your user account.

Time Position Orientation Groundspeed Altitude Reporting Facility
EDT Latitude Longitude Course Direction KTS MPH feet Rate Location/Type
Fri 08:38:45 AM 42.3667 -70.9833 124° Southeast 86 99 400  Level KA90
Fri 08:39:51 AM 42.3500 -70.9500 124° Southeast 101 116 1,300 750 Climbing KA90
Fri 08:40:45 AM 42.3333 -70.9167 124° Southeast 121 139 1,900 737 Climbing KA90
Fri 08:41:45 AM 42.3167 -70.8667 114° Southeast 143 165 2,700 762 Climbing KA90
Fri 08:42:51 AM 42.3167 -70.8167 90° East 138 159 3,500 727 Climbing KA90
Fri 08:44:00 AM 42.2760 -70.7873 109° East  Level FlightAware Approximate
Fri 08:51:00 AM 42.1688 -70.4792 116° Southeast  Level FlightAware Approximate
Fri 08:52:00 AM 42.1527 -70.4357 116° Southeast  Level FlightAware Approximate
Fri 08:53:00 AM 42.1366 -70.3922 117° Southeast  Level FlightAware Approximate
Fri 08:54:00 AM 42.1216 -70.3480 114° Southeast  Level FlightAware Approximate
Fri 08:55:00 AM 42.1069 -70.3036 114° Southeast  Level FlightAware Approximate
Fri 08:56:00 AM 42.0922 -70.2593 114° Southeast  Level FlightAware Approximate
Fri 08:57:00 AM 42.0774 -70.2150 114° Southeast  Level FlightAware Approximate
Fri 08:58:00 AM 42.0626 -70.1707 114° Southeast  Level FlightAware Approximate
Fri 08:59:00 AM 42.0478 -70.1264 114° Southeast  Level FlightAware Approximate
Fri 09:00:00 AM 42.0330 -70.0822 114° Southeast  Level FlightAware Approximate
Fri 09:01:00 AM 42.0182 -70.0379 114° Southeast  Level FlightAware Approximate
Fri 09:02:00 AM 41.9843 -70.0333 180° South  Level FlightAware Approximate
Fri 09:03:00 AM 41.9483 -70.0333 180° South  Level FlightAware Approximate
Fri 09:04:00 AM 41.9123 -70.0333 180° South  Level FlightAware Approximate
Fri 09:05:00 AM 41.8762 -70.0333 180° South  Level FlightAware Approximate
Fri 09:06:00 AM 41.8401 -70.0333 180° South  Level FlightAware Approximate
Fri 09:07:00 AM 41.8041 -70.0333 180° South  Level FlightAware Approximate
Fri 09:08:00 AM 41.7681 -70.0333 180° South  Level FlightAware Approximate
Fri 09:09:00 AM 41.7320 -70.0333 180° South  Level FlightAware Approximate
Fri 09:10:00 AM 41.6959 -70.0333 180° South  Level FlightAware Approximate
Fri 09:11:00 AM 41.6599 -70.0333 180° South  Level FlightAware Approximate
Fri 09:12:00 AM 41.6239 -70.0333 180° South  Level FlightAware Approximate
Fri 09:13:00 AM 41.5880 -70.0357 189° South  Level FlightAware Approximate
Fri 09:14:00 AM 41.5523 -70.0429 189° South  Level FlightAware Approximate
Fri 09:15:00 AM 41.5167 -70.0500 189° South  Level FlightAware Approximate
Fri 09:16:00 AM 41.4806 -70.0500 180° South  Level FlightAware Approximate
Fri 09:17:00 AM 41.4446 -70.0500 180° South  Level FlightAware Approximate
Fri 09:18:00 AM 41.4085 -70.0500 180° South  Level FlightAware Approximate
Fri 09:19:00 AM 41.3725 -70.0500 180° South  Level FlightAware Approximate
Fri 09:20:00 AM 41.3364 -70.0500 180° South  Level FlightAware Approximate
Fri 09:21:00 AM 41.3004 -70.0500 180° South  Level FlightAware Approximate
Fri 09:22:00 AM 41.2643 -70.0500 180° South  Level FlightAware Approximate
Fri 09:23:00 AM 41.2500 -70.0500 180° South  Level FlightAware Approximate
Fri 09:24:00 AM 41.2531 -70.0603 180° South  Level Estimated
Fri 09:25:00 AM 41.2531 -70.0603 180° South  Level Estimated

Login

Don't have an account? Register now (free) for customized features, flight alerts, and more!